Time;durP1;ratioP1;P1;durP2;ratioP2;P2;SDS_P1;SDS_P2;PMS_P1;PMS_P2;Temp;Humidity;BMP_temperature;BMP_pressure;BME280_temperature;BME280_humidity;BME280_pressure;Samples;Min_cycle;Max_cycle;Signal;HPM_P1;HPM_P2
2021/03/09 01:49:29;;;;;;;7.35;5.00;;;1.40;80.30;;;;;;4991485;28;20034;-94
2021/03/09 02:20:07;;;;;;;14.55;5.10;;;1.80;79.70;;;;;;4961417;28;20074;-94
2021/03/09 03:22:25;;;;;;;7.13;4.90;;;1.50;82.50;;;;;;4913025;29;20146;-92
2021/03/09 03:53:37;;;;;;;7.85;5.50;;;1.80;80.60;;;;;;4979329;28;20034;-91
2021/03/09 03:56:37;;;;;;;7.43;4.93;;;1.80;80.40;;;;;;4979084;28;20429;-92
2021/03/09 04:09:55;;;;;;;11.13;5.63;;;1.80;80.60;;;;;;4967849;28;20029;-93
2021/03/09 04:13:16;;;;;;;;;;;;;;;;;;;;;
2021/03/09 04:44:21;;;;;;;8.15;4.63;;;1.60;80.80;;;;;;4978144;28;20106;-93
2021/03/09 04:54:40;;;;;;;7.85;4.38;;;1.50;80.90;;;;;;4877018;29;20048;-93
2021/03/09 05:18:53;;;;;;;8.20;4.78;;;1.40;81.30;;;;;;4955825;28;20057;-93
2021/03/09 05:28:41;;;;;;;6.97;4.07;;;1.20;81.90;;;;;;4979909;28;20072;-92
2021/03/09 05:31:07;;;;;;;6.25;4.68;;;1.20;82.10;;;;;;4962882;28;20121;-92
2021/03/09 05:37:18;;;;;;;8.80;4.47;;;1.20;82.10;;;;;;4958874;29;20292;-92
2021/03/09 05:39:44;;;;;;;6.38;4.30;;;1.10;82.20;;;;;;4943542;28;20074;-90
2021/03/09 05:42:12;;;;;;;7.28;5.15;;;1.10;82.20;;;;;;4944149;28;20039;-93
2021/03/09 05:51:14;;;;;;;9.43;4.55;;;1.10;82.40;;;;;;5020489;28;20034;-93
2021/03/09 05:54:27;;;;;;;7.07;5.25;;;1.10;82.40;;;;;;4983839;28;20393;-92
2021/03/09 05:56:56;;;;;;;8.35;4.55;;;1.10;82.40;;;;;;4977244;28;20046;-92
2021/03/09 05:59:22;;;;;;;7.32;4.68;;;1.10;82.40;;;;;;4980437;28;20235;-91
2021/03/09 06:01:56;;;;;;;8.73;4.70;;;1.10;82.50;;;;;;4983032;28;20074;-91
2021/03/09 06:04:22;;;;;;;17.10;4.85;;;1.10;82.70;;;;;;4976892;28;20038;-93
2021/03/09 06:06:56;;;;;;;8.10;4.47;;;1.10;82.60;;;;;;4961897;28;20057;-91
2021/03/09 06:09:46;;;;;;;8.43;5.00;;;1.20;82.50;;;;;;4993783;28;20047;-91
2021/03/09 06:12:20;;;;;;;12.68;5.65;;;1.10;82.50;;;;;;4962302;28;20031;-91
2021/03/09 06:15:18;;;;;;;6.85;5.03;;;1.10;82.50;;;;;;4997846;28;20459;-89
2021/03/09 06:18:12;;;;;;;7.82;5.22;;;1.10;82.60;;;;;;4977823;28;20130;-91
2021/03/09 06:20:41;;;;;;;10.77;5.65;;;1.20;82.80;;;;;;4972240;28;20062;-92
2021/03/09 06:23:17;;;;;;;7.93;4.60;;;1.20;82.70;;;;;;4968294;28;20307;-91
2021/03/09 06:26:04;;;;;;;7.75;5.20;;;1.20;82.50;;;;;;4958626;29;20046;-91
2021/03/09 06:28:43;;;;;;;9.38;5.40;;;1.20;82.50;;;;;;4941891;29;20274;-91
2021/03/09 06:31:24;;;;;;;9.82;5.65;;;1.30;82.50;;;;;;4962702;28;20035;-91
2021/03/09 06:33:52;;;;;;;9.25;4.82;;;1.30;82.30;;;;;;4964953;28;20049;-91
2021/03/09 06:36:34;;;;;;;18.20;5.47;;;1.30;82.20;;;;;;4968007;28;20385;-91
2021/03/09 06:39:53;;;;;;;8.93;5.20;;;1.40;82.10;;;;;;4943739;28;20078;-92
2021/03/09 06:42:21;;;;;;;7.65;4.43;;;1.40;81.90;;;;;;4974312;28;20646;-91
2021/03/09 06:45:14;;;;;;;8.52;5.72;;;1.40;81.80;;;;;;4979786;28;20042;-90
2021/03/09 06:47:57;;;;;;;10.25;5.53;;;1.50;81.80;;;;;;4964758;28;20050;-91
2021/03/09 06:50:37;;;;;;;9.27;5.20;;;1.60;81.80;;;;;;4946828;28;20067;-90
2021/03/09 06:53:04;;;;;;;6.97;5.03;;;1.60;81.50;;;;;;4954248;28;20038;-91
2021/03/09 06:55:31;;;;;;;8.93;5.07;;;1.60;81.30;;;;;;4962027;28;20050;-92
2021/03/09 06:58:14;;;;;;;7.88;5.05;;;1.70;81.20;;;;;;4980686;28;20046;-91
2021/03/09 07:00:40;;;;;;;8.00;5.50;;;1.80;80.70;;;;;;4968295;28;20426;-91
2021/03/09 07:03:36;;;;;;;10.02;5.00;;;1.80;80.30;;;;;;5003178;28;20095;-92
2021/03/09 07:06:02;;;;;;;8.55;5.50;;;1.90;79.90;;;;;;4966749;28;20046;-91
2021/03/09 07:08:28;;;;;;;7.85;4.97;;;1.90;79.90;;;;;;4962777;28;20067;-92
2021/03/09 07:10:54;;;;;;;7.63;4.65;;;2.00;79.70;;;;;;4968178;28;20077;-92
2021/03/09 07:13:25;;;;;;;6.72;4.60;;;2.10;79.60;;;;;;5053921;28;20427;-92
2021/03/09 07:15:52;;;;;;;8.75;5.03;;;2.20;79.40;;;;;;4968750;28;20039;-90
2021/03/09 07:18:24;;;;;;;14.95;4.97;;;2.30;79.20;;;;;;4968923;28;20070;-92
2021/03/09 07:20:54;;;;;;;9.90;5.22;;;2.40;79.00;;;;;;4953128;28;20035;-91
2021/03/09 07:23:27;;;;;;;9.00;5.47;;;2.50;77.60;;;;;;4960671;28;20134;-92
2021/03/09 07:25:55;;;;;;;12.18;5.05;;;2.60;77.20;;;;;;4962331;28;20450;-92
2021/03/09 07:28:40;;;;;;;6.55;5.25;;;2.70;76.90;;;;;;4960435;28;20146;-93
2021/03/09 07:31:07;;;;;;;8.18;5.60;;;2.70;76.70;;;;;;4967058;28;20580;-91
2021/03/09 07:33:36;;;;;;;7.18;4.93;;;2.90;75.80;;;;;;4974760;28;20043;-90
2021/03/09 07:36:05;;;;;;;9.40;5.63;;;2.90;75.30;;;;;;4963278;28;20039;-92
2021/03/09 07:38:32;;;;;;;9.57;5.45;;;3.00;75.50;;;;;;4991353;28;20039;-91
2021/03/09 07:40:58;;;;;;;10.35;5.72;;;3.10;75.30;;;;;;4957133;29;20130;-91
2021/03/09 07:43:24;;;;;;;9.63;5.60;;;3.20;74.90;;;;;;4955084;28;20468;-90
2021/03/09 07:45:50;;;;;;;9.63;5.50;;;3.40;74.50;;;;;;4964489;28;20046;-92
2021/03/09 07:48:20;;;;;;;11.93;5.28;;;3.50;74.20;;;;;;4959494;28;20389;-93
2021/03/09 07:50:48;;;;;;;9.30;4.93;;;3.60;74.20;;;;;;4971674;28;20281;-92
2021/03/09 07:53:16;;;;;;;8.18;4.93;;;3.70;73.20;;;;;;4959714;28;20035;-90
2021/03/09 07:55:42;;;;;;;8.95;5.22;;;3.80;72.20;;;;;;4966486;28;20038;-91
2021/03/09 07:58:27;;;;;;;9.77;5.03;;;3.90;72.50;;;;;;4959886;28;20035;-91
2021/03/09 08:01:00;;;;;;;6.95;4.47;;;4.00;73.10;;;;;;4992754;28;20042;-91
2021/03/09 08:03:31;;;;;;;6.90;4.30;;;4.00;71.70;;;;;;4993448;28;20407;-90
2021/03/09 08:06:01;;;;;;;8.35;4.63;;;4.10;72.50;;;;;;4963332;28;20080;-91
2021/03/09 08:08:40;;;;;;;8.38;5.25;;;4.20;72.50;;;;;;4951636;28;20035;-91
2021/03/09 08:11:31;;;;;;;9.52;5.15;;;4.30;71.80;;;;;;4947939;28;20389;-91
2021/03/09 08:14:03;;;;;;;8.25;4.72;;;4.40;71.90;;;;;;4990272;28;20039;-91
2021/03/09 08:16:33;;;;;;;6.23;3.83;;;4.40;71.10;;;;;;5057191;28;20122;-90
2021/03/09 08:19:06;;;;;;;6.70;5.10;;;4.50;71.60;;;;;;4957420;28;20389;-90
2021/03/09 08:21:48;;;;;;;10.48;4.85;;;4.60;71.90;;;;;;4989429;28;20055;-91
2021/03/09 08:24:14;;;;;;;5.82;3.65;;;4.70;71.60;;;;;;4943067;28;20050;-88
2021/03/09 08:26:39;;;;;;;8.63;5.90;;;4.80;71.00;;;;;;4965523;28;20042;-91
2021/03/09 08:29:37;;;;;;;9.68;5.70;;;4.90;70.10;;;;;;5059289;28;20069;-90
2021/03/09 08:32:25;;;;;;;6.35;4.47;;;4.90;69.90;;;;;;4961595;28;20042;-91
2021/03/09 08:35:29;;;;;;;5.90;4.57;;;5.00;70.70;;;;;;4966537;28;20031;-92
2021/03/09 08:38:09;;;;;;;;;;;5.00;69.80;;;;;;5049414;28;20042;-89
2021/03/09 08:40:35;;;;;;;8.35;5.20;;;5.10;69.60;;;;;;4965713;28;19914;-88
2021/03/09 08:43:00;;;;;;;12.50;4.90;;;5.20;69.60;;;;;;5047331;28;20042;-87
2021/03/09 08:45:41;;;;;;;7.85;5.35;;;5.30;68.70;;;;;;4986327;28;20504;-89
2021/03/09 08:48:09;;;;;;;7.30;4.80;;;5.40;69.80;;;;;;4990420;28;20064;-88
2021/03/09 08:50:41;;;;;;;8.38;4.28;;;5.60;67.70;;;;;;5004590;28;20100;-89
2021/03/09 08:53:30;;;;;;;5.03;3.85;;;5.70;66.70;;;;;;4989507;28;20069;-87
2021/03/09 08:55:58;;;;;;;5.40;4.75;;;5.70;66.40;;;;;;4969778;28;20038;-89
2021/03/09 08:58:24;;;;;;;6.18;4.30;;;5.80;66.10;;;;;;4971965;28;20064;-88
2021/03/09 09:00:51;;;;;;;5.93;3.65;;;5.90;64.10;;;;;;4973897;28;20039;-89
2021/03/09 09:03:36;;;;;;;6.70;4.53;;;6.10;62.90;;;;;;4978880;28;20042;-89
2021/03/09 09:06:03;;;;;;;5.43;4.10;;;6.20;61.40;;;;;;4985369;28;20050;-88
2021/03/09 09:08:29;;;;;;;5.03;3.45;;;6.20;60.50;;;;;;4986766;28;20034;-89
2021/03/09 09:10:55;;;;;;;5.07;3.70;;;6.20;61.60;;;;;;4977353;28;20042;-88
2021/03/09 09:13:29;;;;;;;7.22;3.88;;;6.30;61.20;;;;;;4989437;28;20042;-91
2021/03/09 09:15:54;;;;;;;7.32;4.07;;;6.30;61.20;;;;;;4985205;28;20034;-89
2021/03/09 09:18:22;;;;;;;4.68;3.60;;;6.40;57.80;;;;;;5060870;28;20035;-89
2021/03/09 09:20:48;;;;;;;5.55;3.05;;;6.30;57.40;;;;;;4973937;28;20043;-88
2021/03/09 09:23:22;;;;;;;5.25;3.78;;;6.30;58.20;;;;;;4957650;28;20063;-89
2021/03/09 09:25:52;;;;;;;4.57;3.08;;;6.30;58.10;;;;;;4969967;28;20070;-89
2021/03/09 09:28:28;;;;;;;7.75;3.92;;;6.40;57.90;;;;;;4960182;28;20384;-89
2021/03/09 09:30:54;;;;;;;6.28;3.83;;;6.40;57.40;;;;;;4977100;28;20035;-88
2021/03/09 09:33:21;;;;;;;4.68;3.63;;;6.50;56.80;;;;;;4971602;28;20038;-90
2021/03/09 09:35:48;;;;;;;4.68;3.63;;;6.50;57.00;;;;;;4966014;28;20426;-89
2021/03/09 09:38:15;;;;;;;5.20;3.72;;;6.50;56.40;;;;;;4968969;28;20125;-90
2021/03/09 09:40:46;;;;;;;3.92;3.35;;;6.60;57.20;;;;;;5002202;28;20055;-90
2021/03/09 09:43:19;;;;;;;5.03;3.65;;;6.70;56.00;;;;;;5062241;28;20034;-90
2021/03/09 09:45:49;;;;;;;5.28;3.70;;;6.70;56.20;;;;;;4962217;28;20393;-91
2021/03/09 09:48:18;;;;;;;6.07;4.03;;;6.80;56.90;;;;;;4979947;28;20139;-91
2021/03/09 09:50:46;;;;;;;6.32;3.92;;;6.90;55.80;;;;;;4970099;28;20045;-90
2021/03/09 09:53:12;;;;;;;5.43;4.07;;;6.90;55.60;;;;;;4976114;28;20031;-90
2021/03/09 09:55:38;;;;;;;8.52;3.42;;;7.00;56.50;;;;;;4998410;28;20038;-89
2021/03/09 09:58:04;;;;;;;5.93;3.95;;;7.10;56.10;;;;;;4962676;28;20056;-89
2021/03/09 10:00:31;;;;;;;5.90;3.95;;;7.10;55.30;;;;;;4961609;28;20045;-91
2021/03/09 10:03:21;;;;;;;8.82;4.07;;;7.10;55.50;;;;;;4969379;28;20038;-90
2021/03/09 10:05:47;;;;;;;5.53;4.20;;;7.20;55.90;;;;;;4968403;28;20035;-90
2021/03/09 10:08:34;;;;;;;5.43;4.53;;;7.30;56.10;;;;;;4966981;28;20034;-91
2021/03/09 10:11:02;;;;;;;5.43;3.90;;;7.30;55.40;;;;;;4963953;28;20088;-90
2021/03/09 10:13:28;;;;;;;6.40;4.00;;;7.40;55.60;;;;;;4961908;28;20034;-91
2021/03/09 10:15:54;;;;;;;8.82;3.88;;;7.50;54.70;;;;;;4961066;28;20039;-88
2021/03/09 10:18:28;;;;;;;6.63;4.22;;;7.60;55.90;;;;;;5060919;28;20039;-90
2021/03/09 10:21:00;;;;;;;6.68;4.05;;;7.70;55.70;;;;;;4978822;28;20404;-89
2021/03/09 10:23:25;;;;;;;6.65;4.00;;;7.90;55.00;;;;;;4961648;28;20039;-92
2021/03/09 10:25:59;;;;;;;6.10;4.55;;;8.00;53.90;;;;;;4963847;28;20107;-90
2021/03/09 10:28:26;;;;;;;5.40;4.18;;;8.10;54.10;;;;;;4980524;28;20611;-89
2021/03/09 10:30:52;;;;;;;6.93;4.38;;;8.20;53.50;;;;;;4969347;28;20273;-92
2021/03/09 10:33:18;;;;;;;6.85;4.75;;;8.30;52.50;;;;;;4980203;28;20140;-92
2021/03/09 10:36:07;;;;;;;6.47;4.78;;;8.40;52.50;;;;;;4963362;28;20073;-92
2021/03/09 10:38:33;;;;;;;6.05;4.13;;;8.40;51.30;;;;;;4960105;28;20043;-91
2021/03/09 10:40:59;;;;;;;6.55;4.80;;;8.50;52.80;;;;;;4961157;28;20041;-92
2021/03/09 10:43:38;;;;;;;7.53;5.20;;;8.50;52.10;;;;;;4961546;28;20035;-91
2021/03/09 10:46:03;;;;;;;6.22;4.50;;;8.60;50.20;;;;;;5063171;28;20100;-93
2021/03/09 10:48:29;;;;;;;7.50;5.55;;;8.60;50.40;;;;;;4977846;28;20054;-92
2021/03/09 10:50:54;;;;;;;7.50;5.32;;;8.60;47.50;;;;;;5016131;28;20037;-91
2021/03/09 10:53:20;;;;;;;6.65;4.70;;;8.60;46.60;;;;;;5095084;28;20271;-92
2021/03/09 10:55:45;;;;;;;6.85;5.35;;;8.50;47.60;;;;;;5061940;28;20033;-90
2021/03/09 10:58:11;;;;;;;7.65;5.30;;;8.50;48.90;;;;;;5061921;28;20086;-91
2021/03/09 11:00:36;;;;;;;7.43;4.88;;;8.50;49.10;;;;;;4990404;28;20047;-92
2021/03/09 11:03:02;;;;;;;8.73;5.70;;;8.60;49.10;;;;;;4961555;28;20088;-92
2021/03/09 11:05:29;;;;;;;7.60;5.43;;;8.70;49.10;;;;;;4962699;28;20339;-92
2021/03/09 11:07:55;;;;;;;7.97;5.28;;;8.70;50.50;;;;;;4993290;28;20046;-91
2021/03/09 11:10:25;;;;;;;8.57;5.25;;;8.90;49.60;;;;;;4961039;28;20034;-93
2021/03/09 11:12:58;;;;;;;9.30;5.25;;;8.90;51.00;;;;;;5078036;28;20120;-91
2021/03/09 11:15:27;;;;;;;7.28;5.18;;;8.90;47.80;;;;;;5000394;28;20035;-91
2021/03/09 11:17:52;;;;;;;9.95;6.03;;;8.90;47.30;;;;;;4963569;28;20039;-92
2021/03/09 11:20:26;;;;;;;6.85;5.10;;;9.00;46.50;;;;;;4960647;28;20095;-91
2021/03/09 11:22:52;;;;;;;8.98;5.82;;;9.00;46.20;;;;;;4965019;28;20145;-93
2021/03/09 11:25:50;;;;;;;9.50;6.68;;;9.00;48.40;;;;;;4963426;28;20121;-92
2021/03/09 11:28:48;;;;;;;;;;;;;;;;;;;;;
2021/03/09 11:31:48;;;;;;;9.68;5.53;;;9.20;48.50;;;;;;4958245;28;20033;-91
2021/03/09 11:34:17;;;;;;;12.30;6.65;;;9.30;50.40;;;;;;4957998;28;20187;-91
2021/03/09 11:36:57;;;;;;;13.27;6.43;;;9.30;48.20;;;;;;4981827;28;20049;-94
2021/03/09 11:39:45;;;;;;;;;;;;;;;;;;;;;
2021/03/09 11:42:14;;;;;;;13.05;6.80;;;9.40;48.10;;;;;;4974948;28;20266;-91
2021/03/09 11:45:00;;;;;;;8.95;6.10;;;9.50;48.00;;;;;;4999262;28;20414;-92
2021/03/09 11:47:25;;;;;;;10.98;6.18;;;9.70;48.30;;;;;;4975855;28;20050;-91
2021/03/09 11:49:51;;;;;;;10.52;6.25;;;9.80;46.80;;;;;;4957269;28;20035;-92
2021/03/09 11:52:17;;;;;;;10.50;6.47;;;9.90;46.40;;;;;;4961129;28;20080;-90
2021/03/09 11:54:42;;;;;;;9.82;7.43;;;10.00;45.40;;;;;;5029220;28;20077;-90
2021/03/09 11:57:08;;;;;;;13.25;6.50;;;10.00;46.90;;;;;;4978005;28;20133;-91
2021/03/09 11:59:34;;;;;;;10.70;6.53;;;10.00;46.50;;;;;;4959592;28;20082;-92
2021/03/09 12:02:03;;;;;;;11.18;7.00;;;9.90;47.00;;;;;;4973859;28;20328;-93
2021/03/09 12:08:25;;;;;;;11.55;7.40;;;9.90;48.40;;;;;;4979881;28;20073;-94
2021/03/09 12:11:29;;;;;;;9.70;6.45;;;10.00;48.00;;;;;;4958238;29;20035;-93
2021/03/09 12:17:12;;;;;;;9.20;6.68;;;10.10;46.10;;;;;;4937112;29;20559;-93
2021/03/09 12:19:47;;;;;;;10.93;6.05;;;10.00;47.20;;;;;;4936920;29;20060;-93
2021/03/09 12:39:42;;;;;;;;;;;;;;;;;;;;;
2021/03/09 12:45:58;;;;;;;8.55;5.78;;;10.50;44.20;;;;;;4908153;29;20142;-93
2021/03/09 12:49:26;;;;;;;;;;;;;;;;;;;;;
2021/03/09 12:52:28;;;;;;;;;;;;;;;;;;;;;
2021/03/09 12:59:12;;;;;;;9.18;6.22;;;10.30;45.10;;;;;;4972983;28;20039;-94
2021/03/09 13:02:26;;;;;;;11.93;7.00;;;10.50;44.00;;;;;;5012062;28;20037;-92
2021/03/09 13:05:22;;;;;;;9.77;6.20;;;10.60;45.00;;;;;;4928182;28;20047;-93
2021/03/09 13:08:17;;;;;;;10.07;6.72;;;10.70;44.40;;;;;;4902078;28;20059;-94
2021/03/09 13:10:43;;;;;;;9.77;5.85;;;10.80;45.50;;;;;;5045066;28;20073;-93
2021/03/09 13:13:17;;;;;;;9.68;5.88;;;10.90;44.50;;;;;;4959637;28;20392;-93
2021/03/09 13:15:48;;;;;;;10.00;6.30;;;11.00;44.20;;;;;;4962733;28;20092;-93
2021/03/09 13:18:14;;;;;;;8.45;6.00;;;11.00;43.10;;;;;;4958447;28;20126;-93
2021/03/09 13:20:39;;;;;;;9.38;6.55;;;10.90;42.10;;;;;;4959309;28;20058;-91
2021/03/09 13:23:05;;;;;;;8.60;5.60;;;10.90;43.20;;;;;;4959116;28;20312;-92
2021/03/09 13:25:30;;;;;;;7.25;5.20;;;10.80;42.90;;;;;;4966697;28;20397;-92
2021/03/09 13:27:56;;;;;;;8.45;5.80;;;10.80;42.90;;;;;;4989890;28;20133;-92
2021/03/09 13:30:22;;;;;;;8.63;5.93;;;10.70;41.50;;;;;;4967946;28;20073;-90
2021/03/09 13:32:47;;;;;;;9.35;5.82;;;10.60;41.90;;;;;;4970197;28;20356;-91
2021/03/09 13:35:14;;;;;;;7.75;5.13;;;10.50;42.80;;;;;;4985993;28;20324;-88
2021/03/09 13:37:43;;;;;;;10.13;6.30;;;10.40;43.60;;;;;;4962593;28;20049;-90
2021/03/09 13:40:12;;;;;;;10.40;6.15;;;10.30;45.70;;;;;;4991978;28;20125;-90
2021/03/09 13:42:38;;;;;;;10.05;6.07;;;10.30;44.50;;;;;;4975632;28;20046;-90
2021/03/09 13:45:05;;;;;;;10.45;5.75;;;10.30;44.70;;;;;;4982353;28;20345;-91
2021/03/09 13:47:30;;;;;;;10.50;5.85;;;10.30;44.40;;;;;;4986585;28;20066;-90
2021/03/09 13:49:56;;;;;;;7.22;5.55;;;10.40;45.00;;;;;;5061191;28;20075;-91
2021/03/09 13:52:21;;;;;;;10.10;6.72;;;10.50;45.00;;;;;;5010623;28;20067;-90
2021/03/09 13:54:47;;;;;;;10.27;6.85;;;10.50;44.70;;;;;;5000354;28;20038;-90
2021/03/09 13:57:12;;;;;;;11.70;6.90;;;10.60;45.20;;;;;;4973548;28;20078;-88
2021/03/09 13:59:38;;;;;;;11.00;6.32;;;10.70;44.20;;;;;;4991337;28;20126;-90
2021/03/09 14:02:03;;;;;;;9.57;6.53;;;10.80;44.40;;;;;;4967057;28;20073;-89
2021/03/09 14:04:29;;;;;;;10.63;6.07;;;10.80;45.50;;;;;;4971258;28;20122;-91
2021/03/09 14:06:54;;;;;;;9.63;6.32;;;10.80;45.10;;;;;;4952315;28;20039;-91
2021/03/09 14:09:20;;;;;;;10.00;5.78;;;10.80;43.80;;;;;;4978547;28;20031;-91
2021/03/09 14:11:48;;;;;;;9.35;6.22;;;10.90;44.70;;;;;;4969504;28;20046;-90
2021/03/09 14:14:15;;;;;;;8.20;5.32;;;10.90;44.30;;;;;;5050932;28;20176;-90
2021/03/09 14:16:42;;;;;;;9.82;5.90;;;10.90;45.60;;;;;;5012722;28;20034;-90
2021/03/09 14:19:11;;;;;;;8.27;6.18;;;11.00;45.50;;;;;;4980475;28;20050;-90
2021/03/09 14:21:36;;;;;;;8.60;6.28;;;11.00;45.50;;;;;;4977262;28;20057;-91
2021/03/09 14:24:02;;;;;;;9.45;6.57;;;10.90;44.70;;;;;;4970599;28;20461;-89
2021/03/09 14:26:29;;;;;;;9.35;6.25;;;10.90;45.70;;;;;;4964283;28;20096;-91
2021/03/09 14:28:54;;;;;;;8.35;5.43;;;10.80;44.40;;;;;;4976296;28;20046;-89
2021/03/09 14:31:21;;;;;;;11.57;6.25;;;10.70;45.30;;;;;;4962777;28;20031;-89
2021/03/09 14:33:46;;;;;;;7.97;6.20;;;10.60;44.60;;;;;;4972409;28;20054;-90
2021/03/09 14:36:11;;;;;;;7.80;5.38;;;10.60;44.60;;;;;;4965834;28;20049;-89
2021/03/09 14:38:38;;;;;;;8.77;6.00;;;10.60;44.20;;;;;;4960600;28;20108;-89
2021/03/09 14:41:03;;;;;;;10.65;6.47;;;10.60;44.70;;;;;;4968313;28;20042;-90
2021/03/09 14:43:29;;;;;;;10.70;6.95;;;10.60;45.50;;;;;;4962182;28;20051;-90
2021/03/09 14:45:59;;;;;;;10.00;5.80;;;10.60;45.00;;;;;;5055319;28;20039;-90
2021/03/09 14:48:24;;;;;;;10.55;6.28;;;10.70;44.30;;;;;;5044631;28;20051;-89
2021/03/09 14:50:50;;;;;;;8.30;5.30;;;10.70;44.30;;;;;;4981468;28;20094;-90
2021/03/09 14:53:15;;;;;;;8.40;5.93;;;10.80;44.90;;;;;;4997328;28;20402;-89
2021/03/09 14:55:40;;;;;;;8.73;6.07;;;10.80;45.50;;;;;;4980106;28;20073;-90
2021/03/09 14:58:06;;;;;;;10.75;6.70;;;10.90;46.00;;;;;;4979162;28;20038;-91
2021/03/09 15:00:32;;;;;;;7.25;5.82;;;11.00;45.00;;;;;;4972424;28;20402;-89
2021/03/09 15:02:57;;;;;;;7.55;5.32;;;11.00;43.60;;;;;;4960274;28;20047;-88
2021/03/09 15:05:23;;;;;;;10.68;5.45;;;10.80;44.10;;;;;;4960218;28;20447;-90
2021/03/09 15:07:49;;;;;;;7.65;5.88;;;10.80;44.30;;;;;;4977031;28;20038;-90
2021/03/09 15:10:16;;;;;;;7.72;5.78;;;10.80;45.00;;;;;;4976832;28;20080;-89
2021/03/09 15:12:41;;;;;;;11.10;6.88;;;10.70;44.40;;;;;;4960226;28;20110;-90
2021/03/09 15:15:08;;;;;;;10.25;6.28;;;10.60;44.50;;;;;;4960443;28;20404;-90
2021/03/09 15:17:35;;;;;;;16.30;6.35;;;10.60;45.00;;;;;;4976839;28;20392;-91
2021/03/09 15:20:02;;;;;;;7.65;6.20;;;10.70;44.00;;;;;;4959716;28;20316;-89
2021/03/09 15:22:27;;;;;;;9.07;6.25;;;10.60;44.30;;;;;;4976435;28;20038;-91
2021/03/09 15:24:53;;;;;;;8.48;6.28;;;10.60;44.60;;;;;;4976310;28;20035;-89
2021/03/09 15:27:18;;;;;;;9.65;6.25;;;10.50;44.70;;;;;;4960082;28;20075;-89
2021/03/09 15:29:44;;;;;;;11.23;5.80;;;10.40;45.90;;;;;;4959698;28;20344;-89
2021/03/09 15:32:10;;;;;;;10.07;6.10;;;10.30;44.60;;;;;;4959845;28;20042;-89
2021/03/09 15:34:36;;;;;;;11.05;5.88;;;10.20;45.00;;;;;;4976432;28;20292;-90
2021/03/09 15:37:01;;;;;;;8.88;5.90;;;10.10;45.60;;;;;;4976630;28;20042;-90
2021/03/09 15:39:27;;;;;;;8.80;6.00;;;10.00;44.70;;;;;;4972852;28;20054;-91
2021/03/09 15:41:53;;;;;;;8.93;6.35;;;9.90;45.40;;;;;;4995433;28;20396;-90
2021/03/09 15:44:18;;;;;;;8.85;5.90;;;9.90;44.50;;;;;;4995552;28;20068;-90
2021/03/09 15:46:44;;;;;;;9.38;5.68;;;9.90;45.10;;;;;;4978495;28;20046;-88
2021/03/09 15:49:10;;;;;;;11.27;5.75;;;9.90;45.50;;;;;;4995714;28;20041;-88
2021/03/09 15:51:35;;;;;;;10.57;6.47;;;9.80;45.20;;;;;;4979324;28;20038;-89
2021/03/09 15:54:01;;;;;;;8.95;6.10;;;9.70;45.80;;;;;;4978117;28;20061;-89
2021/03/09 15:56:27;;;;;;;18.25;7.50;;;9.70;45.50;;;;;;5021220;28;20051;-87
2021/03/09 15:58:53;;;;;;;12.85;6.68;;;9.70;45.90;;;;;;5060162;28;20040;-89
2021/03/09 16:01:18;;;;;;;8.82;5.60;;;9.60;45.30;;;;;;4962839;28;20427;-89
2021/03/09 16:03:45;;;;;;;11.35;6.40;;;9.60;46.00;;;;;;5060021;28;20051;-90
2021/03/09 16:06:10;;;;;;;8.93;6.07;;;9.60;47.50;;;;;;5058627;28;20066;-89
2021/03/09 16:08:36;;;;;;;9.20;5.95;;;9.40;47.00;;;;;;4963460;28;20497;-88
2021/03/09 16:11:01;;;;;;;11.45;7.00;;;9.40;49.40;;;;;;4994657;28;20078;-88
2021/03/09 16:13:27;;;;;;;10.25;7.13;;;9.30;47.20;;;;;;4967318;28;20039;-88
2021/03/09 16:15:52;;;;;;;13.05;6.45;;;9.30;47.20;;;;;;4984506;28;20038;-87
2021/03/09 16:18:18;;;;;;;9.55;6.70;;;9.20;48.30;;;;;;4993997;28;20121;-87
2021/03/09 16:20:43;;;;;;;9.85;6.65;;;9.20;48.50;;;;;;5048921;28;20054;-87
2021/03/09 16:23:09;;;;;;;11.30;7.35;;;9.10;48.20;;;;;;4970594;28;20049;-87
2021/03/09 16:25:35;;;;;;;15.50;6.18;;;9.00;48.30;;;;;;5054174;28;20057;-88
2021/03/09 16:28:00;;;;;;;12.02;7.15;;;8.90;48.30;;;;;;5049087;28;20130;-89
2021/03/09 16:30:28;;;;;;;9.75;6.80;;;8.90;48.80;;;;;;4967567;28;20050;-91
2021/03/09 16:32:57;;;;;;;9.75;6.20;;;8.80;52.00;;;;;;4994954;28;20043;-88
2021/03/09 16:35:23;;;;;;;13.73;7.22;;;8.80;50.40;;;;;;5048158;28;20376;-89
2021/03/09 16:37:48;;;;;;;11.18;6.75;;;8.80;48.70;;;;;;4991644;28;20062;-88
2021/03/09 16:40:15;;;;;;;9.07;5.97;;;8.70;48.70;;;;;;5058534;28;20397;-88
2021/03/09 16:42:42;;;;;;;10.65;6.13;;;8.70;48.70;;;;;;4970496;28;20046;-88
2021/03/09 16:45:14;;;;;;;8.73;5.68;;;8.70;48.50;;;;;;4985904;28;20053;-90
2021/03/09 16:47:40;;;;;;;11.03;4.43;;;8.60;48.50;;;;;;4980903;28;20057;-88
2021/03/09 16:50:06;;;;;;;8.35;5.88;;;8.60;48.50;;;;;;4975553;28;20026;-89
2021/03/09 16:52:32;;;;;;;8.77;6.30;;;8.50;48.40;;;;;;4960571;28;20038;-87
2021/03/09 16:54:57;;;;;;;9.25;5.82;;;8.40;48.50;;;;;;4960006;28;20038;-87
2021/03/09 16:57:23;;;;;;;9.55;6.30;;;8.40;49.10;;;;;;4966884;28;20129;-88
2021/03/09 16:59:48;;;;;;;9.40;6.78;;;8.40;49.60;;;;;;4969624;28;20307;-89
2021/03/09 17:02:14;;;;;;;9.20;5.20;;;8.30;48.90;;;;;;4979933;28;20412;-89
2021/03/09 17:04:39;;;;;;;10.38;5.82;;;8.30;49.10;;;;;;4984746;28;20042;-89
2021/03/09 17:07:05;;;;;;;9.82;6.47;;;8.20;49.10;;;;;;4977339;28;20133;-89
2021/03/09 17:09:30;;;;;;;10.23;6.82;;;8.20;49.40;;;;;;4961689;28;20118;-89
2021/03/09 17:11:56;;;;;;;11.88;6.65;;;8.20;49.50;;;;;;5053745;28;20042;-89
2021/03/09 17:14:21;;;;;;;10.20;6.85;;;8.20;49.50;;;;;;4984737;28;20308;-89
2021/03/09 17:16:47;;;;;;;13.50;5.88;;;8.10;49.00;;;;;;4977616;28;20038;-89
2021/03/09 17:19:13;;;;;;;9.48;7.15;;;8.10;48.80;;;;;;4960150;28;20042;-90
2021/03/09 17:21:38;;;;;;;9.32;6.15;;;8.00;49.10;;;;;;4983138;28;20034;-90
2021/03/09 17:24:05;;;;;;;10.90;7.30;;;8.00;48.90;;;;;;4981591;28;20039;-90
2021/03/09 17:26:30;;;;;;;13.45;8.90;;;8.00;49.20;;;;;;4972584;28;20057;-89
2021/03/09 17:28:56;;;;;;;12.57;7.35;;;8.00;49.40;;;;;;4994604;28;20042;-89
2021/03/09 17:31:22;;;;;;;12.60;7.30;;;8.00;49.30;;;;;;5047702;28;20408;-89
2021/03/09 17:33:48;;;;;;;11.68;8.05;;;8.00;49.10;;;;;;4969741;28;20079;-89
2021/03/09 17:36:14;;;;;;;12.60;7.85;;;8.00;48.50;;;;;;4977847;28;20073;-88
2021/03/09 17:38:39;;;;;;;11.02;7.00;;;8.00;49.10;;;;;;4988715;28;20034;-89
2021/03/09 17:41:05;;;;;;;12.02;7.10;;;7.90;49.10;;;;;;4983899;28;20643;-88
2021/03/09 17:43:30;;;;;;;9.43;6.07;;;7.90;48.30;;;;;;4967434;28;20122;-89
2021/03/09 17:45:56;;;;;;;9.73;6.57;;;7.90;48.70;;;;;;5010004;28;20068;-87
2021/03/09 17:48:21;;;;;;;8.90;6.28;;;7.90;48.90;;;;;;4990220;28;20043;-87
2021/03/09 17:50:47;;;;;;;11.65;6.65;;;7.90;48.80;;;;;;4959432;28;20035;-88
2021/03/09 17:53:12;;;;;;;11.10;6.57;;;7.90;49.10;;;;;;4949110;28;20054;-90
2021/03/09 17:55:39;;;;;;;10.02;6.38;;;7.90;49.00;;;;;;4980527;28;20035;-87
2021/03/09 17:58:04;;;;;;;11.25;6.60;;;7.90;49.10;;;;;;4974804;28;20121;-89
2021/03/09 18:00:30;;;;;;;9.93;6.63;;;7.90;49.20;;;;;;4954065;28;20184;-88
2021/03/09 18:02:55;;;;;;;11.63;7.32;;;7.90;49.10;;;;;;4965923;28;20505;-87
2021/03/09 18:05:21;;;;;;;9.32;6.22;;;7.90;49.60;;;;;;4956930;28;20069;-89
2021/03/09 18:07:46;;;;;;;11.68;6.25;;;7.80;49.70;;;;;;4965690;28;20483;-88
2021/03/09 18:10:12;;;;;;;12.13;7.60;;;7.80;49.90;;;;;;4963203;28;20043;-89
2021/03/09 18:12:37;;;;;;;12.52;6.18;;;7.80;49.80;;;;;;4957093;28;20038;-89
2021/03/09 18:15:05;;;;;;;9.95;5.82;;;7.80;49.60;;;;;;4959216;28;20064;-89
2021/03/09 18:17:31;;;;;;;15.38;7.18;;;7.70;49.20;;;;;;4977021;28;20046;-89
2021/03/09 18:19:56;;;;;;;14.55;6.28;;;7.70;49.40;;;;;;4964015;28;20038;-89
2021/03/09 18:22:23;;;;;;;11.32;7.20;;;7.70;50.00;;;;;;5041009;28;20189;-89
2021/03/09 18:24:51;;;;;;;12.15;6.75;;;7.70;49.90;;;;;;5029389;28;20037;-88
2021/03/09 18:27:16;;;;;;;11.40;6.93;;;7.70;49.90;;;;;;5059498;28;20067;-86
2021/03/09 18:29:41;;;;;;;12.95;6.93;;;7.60;49.70;;;;;;4981170;28;20030;-88
2021/03/09 18:32:07;;;;;;;13.00;6.45;;;7.60;49.40;;;;;;4990590;28;20423;-86
2021/03/09 18:34:32;;;;;;;14.35;6.05;;;7.60;49.30;;;;;;4960156;28;20131;-85
2021/03/09 18:36:58;;;;;;;8.90;6.43;;;7.60;49.20;;;;;;4965658;28;20042;-87
2021/03/09 18:39:23;;;;;;;12.30;7.05;;;7.50;49.10;;;;;;4985779;28;20054;-87
2021/03/09 18:41:49;;;;;;;10.85;7.47;;;7.50;49.50;;;;;;5047911;28;20034;-89
2021/03/09 18:44:14;;;;;;;10.90;6.40;;;7.50;50.10;;;;;;4994662;28;20120;-86
2021/03/09 18:46:40;;;;;;;12.77;7.20;;;7.50;50.50;;;;;;4983422;28;20073;-87
2021/03/09 18:49:05;;;;;;;11.25;6.22;;;7.50;50.70;;;;;;5055432;28;20070;-86
2021/03/09 18:51:31;;;;;;;12.57;6.15;;;7.50;50.50;;;;;;4974828;28;20039;-86
2021/03/09 18:53:56;;;;;;;9.60;6.30;;;7.40;51.10;;;;;;4973969;28;20278;-88
2021/03/09 18:56:22;;;;;;;9.18;5.45;;;7.40;51.30;;;;;;4962248;28;20082;-89
2021/03/09 18:58:48;;;;;;;12.30;6.60;;;7.40;51.50;;;;;;4975450;28;20052;-88